createdAt,value
2019-01-23T00:01:20.337Z,100334.92
2019-01-23T00:11:11.598Z,100320.22
2019-01-23T00:33:18.839Z,100304.87
2019-01-23T00:43:12.294Z,100303.27
2019-01-23T00:59:59.125Z,100280.86
2019-01-23T01:12:57.667Z,100279.16
2019-01-23T01:43:12.439Z,100285.27
2019-01-23T01:57:00.957Z,100279.51
2019-01-23T02:07:18.280Z,100276.66
2019-01-23T02:10:10.946Z,100278.64
2019-01-23T02:15:56.158Z,100280.39
2019-01-23T02:22:56.636Z,100278.69
2019-01-23T02:32:21.017Z,100266.06
2019-01-23T02:34:49.918Z,100268.91
2019-01-23T02:37:18.736Z,100260.81
2019-01-23T02:39:47.634Z,100262.59
2019-01-23T02:42:16.956Z,100257.48
2019-01-23T02:44:45.808Z,100258.86
2019-01-23T02:47:14.631Z,100251.41
2019-01-23T02:49:43.667Z,100251.36
2019-01-23T02:52:12.801Z,100256.08
2019-01-23T02:54:41.649Z,100254.98
2019-01-23T02:57:10.823Z,100255.04
2019-01-23T02:59:39.649Z,100255.87
2019-01-23T03:02:08.587Z,100253.80
2019-01-23T03:04:37.370Z,100252.48
2019-01-23T03:07:06.258Z,100257.65
2019-01-23T03:09:35.255Z,100255.97
2019-01-23T03:12:04.205Z,100260.72
2019-01-23T03:14:33.042Z,100258.86
2019-01-23T03:17:02.022Z,100258.66
2019-01-23T03:19:30.903Z,100254.32
2019-01-23T03:21:59.788Z,100253.37
2019-01-23T03:24:28.706Z,100261.23
2019-01-23T03:26:57.615Z,100260.93
2019-01-23T03:29:26.425Z,100260.77
2019-01-23T03:31:55.222Z,100266.34
2019-01-23T03:34:24.099Z,100260.44
2019-01-23T03:36:53.443Z,100257.03
2019-01-23T03:39:22.615Z,100258.66
2019-01-23T03:41:51.374Z,100265.58
2019-01-23T03:44:20.232Z,100262.61
2019-01-23T03:46:49.148Z,100261.31
2019-01-23T03:49:17.924Z,100262.68
2019-01-23T03:51:46.734Z,100265.75
2019-01-23T03:54:15.538Z,100267.37
2019-01-23T03:56:44.628Z,100266.01
2019-01-23T03:59:13.614Z,100262.45
2019-01-23T04:01:42.418Z,100270.45
2019-01-23T04:04:11.309Z,100272.11
2019-01-23T04:06:40.465Z,100270.73
2019-01-23T04:09:09.347Z,100273.88
2019-01-23T04:11:38.261Z,100279.50
2019-01-23T04:14:07.163Z,100273.41
2019-01-23T04:16:35.959Z,100275.13
2019-01-23T04:19:04.932Z,100267.96
2019-01-23T04:21:33.864Z,100271.80
2019-01-23T04:24:02.702Z,100271.77
2019-01-23T04:26:31.755Z,100269.14
2019-01-23T04:29:00.557Z,100275.92
2019-01-23T04:31:29.723Z,100278.58
2019-01-23T04:33:58.486Z,100279.84
2019-01-23T04:36:27.693Z,100275.70
2019-01-23T04:38:56.468Z,100279.16
2019-01-23T04:41:26.078Z,100281.37
2019-01-23T04:43:55.172Z,100277.98
2019-01-23T04:46:24.205Z,100280.52
2019-01-23T04:48:53.459Z,100278.86
2019-01-23T04:51:41.669Z,100286.48
2019-01-23T04:54:14.353Z,100287.75
2019-01-23T04:56:43.509Z,100288.28
2019-01-23T04:59:12.394Z,100287.28
2019-01-23T05:01:41.196Z,100287.06
2019-01-23T05:04:10.001Z,100283.21
2019-01-23T05:06:39.098Z,100281.55
2019-01-23T05:09:09.316Z,100278.93
2019-01-23T05:11:38.272Z,100287.91
2019-01-23T05:14:07.239Z,100281.50
2019-01-23T05:16:36.019Z,100289.25
2019-01-23T05:19:05.544Z,100284.55
2019-01-23T05:21:34.339Z,100287.58
2019-01-23T05:24:03.152Z,100293.17
2019-01-23T05:26:32.030Z,100296.09
2019-01-23T05:29:00.812Z,100295.23
2019-01-23T05:31:29.833Z,100296.20
2019-01-23T05:33:58.630Z,100285.44
2019-01-23T05:36:27.467Z,100291.02
2019-01-23T05:38:56.262Z,100294.13
2019-01-23T05:41:25.048Z,100296.22
2019-01-23T05:43:53.840Z,100291.02
2019-01-23T05:46:23.040Z,100293.66
2019-01-23T05:48:52.084Z,100290.29
2019-01-23T05:51:20.963Z,100292.28
2019-01-23T05:53:49.838Z,100295.09
2019-01-23T05:56:18.876Z,100298.50
2019-01-23T05:58:47.758Z,100298.80
2019-01-23T06:01:16.641Z,100291.50
2019-01-23T06:03:45.521Z,100298.03
2019-01-23T06:06:14.367Z,100298.37
2019-01-23T06:08:43.540Z,100301.42
2019-01-23T06:11:12.370Z,100297.30
2019-01-23T06:13:41.256Z,100300.70
2019-01-23T06:16:10.026Z,100300.19
2019-01-23T06:18:38.897Z,100299.30
2019-01-23T06:21:07.706Z,100300.55
2019-01-23T06:23:36.613Z,100304.44
2019-01-23T06:26:05.614Z,100303.19
2019-01-23T06:28:34.438Z,100311.28
2019-01-23T06:31:03.602Z,100308.34
2019-01-23T06:33:32.431Z,100313.59
2019-01-23T06:36:01.373Z,100317.08
2019-01-23T06:38:30.344Z,100316.95
2019-01-23T06:40:59.189Z,100323.11
2019-01-23T06:43:27.975Z,100319.70
2019-01-23T06:45:57.143Z,100326.18
2019-01-23T06:48:26.302Z,100329.13
2019-01-23T06:50:55.107Z,100324.80
2019-01-23T06:53:24.319Z,100341.64
2019-01-23T06:55:53.094Z,100346.39
2019-01-23T06:58:22.275Z,100346.88
2019-01-23T07:00:51.508Z,100339.48
2019-01-23T07:03:20.375Z,100346.44
2019-01-23T07:05:49.261Z,100346.47
2019-01-23T07:08:18.119Z,100344.72
2019-01-23T07:10:47.170Z,100348.94
2019-01-23T07:13:15.991Z,100348.09
2019-01-23T07:15:44.759Z,100348.50
2019-01-23T07:18:14.016Z,100352.81
2019-01-23T07:20:43.001Z,100350.69
2019-01-23T07:23:12.022Z,100350.66
2019-01-23T07:25:40.834Z,100350.25
2019-01-23T07:28:09.957Z,100352.96
2019-01-23T07:30:41.255Z,100346.89
2019-01-23T07:33:10.107Z,100353.62
2019-01-23T07:35:38.977Z,100353.33
2019-01-23T07:38:07.890Z,100354.55
2019-01-23T07:40:36.734Z,100358.53
2019-01-23T07:43:05.727Z,100361.90
2019-01-23T07:45:34.646Z,100363.06
2019-01-23T07:48:03.875Z,100364.36
2019-01-23T07:50:32.748Z,100366.59
2019-01-23T07:53:01.773Z,100370.39
2019-01-23T07:55:30.926Z,100373.58
2019-01-23T07:57:59.750Z,100381.27
2019-01-23T08:00:31.625Z,100369.67
2019-01-23T08:02:59.809Z,100370.55
2019-01-23T08:05:28.693Z,100367.05
2019-01-23T08:07:57.887Z,100375.20
2019-01-23T08:10:27.172Z,100373.50
2019-01-23T08:12:56.164Z,100372.14
2019-01-23T08:15:30.932Z,100377.34
2019-01-23T08:17:59.850Z,100373.87
2019-01-23T08:20:29.449Z,100369.91
2019-01-23T08:22:58.807Z,100376.36
2019-01-23T08:25:27.801Z,100374.70
2019-01-23T08:27:57.142Z,100377.69
2019-01-23T08:30:26.904Z,100383.80
2019-01-23T08:32:55.909Z,100385.83
2019-01-23T08:35:25.827Z,100381.58
2019-01-23T08:37:55.106Z,100374.21
2019-01-23T08:40:24.071Z,100379.79
2019-01-23T08:42:53.109Z,100377.52
2019-01-23T08:45:22.287Z,100383.55
2019-01-23T08:47:51.503Z,100380.95
2019-01-23T08:50:34.854Z,100385.70
2019-01-23T08:53:03.702Z,100388.74
2019-01-23T08:55:32.520Z,100390.41
2019-01-23T08:58:01.515Z,100391.65
2019-01-23T09:00:30.506Z,100395.14
2019-01-23T09:02:59.350Z,100400.20
2019-01-23T09:05:28.237Z,100404.59
2019-01-23T09:07:57.467Z,100406.36
2019-01-23T09:10:26.836Z,100411.89
2019-01-23T09:12:56.499Z,100415.77
2019-01-23T09:15:25.464Z,100413.70
2019-01-23T09:17:54.709Z,100416.64
2019-01-23T09:20:23.810Z,100422.05
2019-01-23T09:22:52.952Z,100422.55
2019-01-23T09:25:23.518Z,100426.09
2019-01-23T09:27:52.458Z,100420.89
2019-01-23T09:30:31.620Z,100414.81
2019-01-23T09:33:31.753Z,100423.36
2019-01-23T09:36:26.238Z,100414.77
2019-01-23T09:39:32.446Z,100418.55
2019-01-23T09:42:44.879Z,100421.63
2019-01-23T09:45:40.007Z,100425.77
2019-01-23T09:48:29.519Z,100428.50
2019-01-23T09:51:45.522Z,100427.47
2019-01-23T09:54:15.924Z,100423.13
2019-01-23T09:56:47.656Z,100433.15
2019-01-23T09:59:16.485Z,100440.52
2019-01-23T10:01:45.271Z,100433.52
2019-01-23T10:04:14.053Z,100432.64
2019-01-23T10:06:43.357Z,100429.02
2019-01-23T10:09:12.491Z,100426.91
2019-01-23T10:11:41.448Z,100436.70
2019-01-23T10:14:10.246Z,100436.91
2019-01-23T10:16:39.056Z,100441.08
2019-01-23T10:19:07.984Z,100440.69
2019-01-23T10:21:37.159Z,100441.05
2019-01-23T10:24:06.615Z,100443.67
2019-01-23T10:26:35.566Z,100443.31
2019-01-23T10:29:04.508Z,100442.81
2019-01-23T10:31:33.306Z,100437.94
2019-01-23T10:34:02.154Z,100430.70
2019-01-23T10:36:31.098Z,100435.82
2019-01-23T10:38:59.894Z,100427.58
2019-01-23T10:41:28.822Z,100429.92
2019-01-23T10:43:57.766Z,100428.34
2019-01-23T10:46:26.657Z,100430.61
2019-01-23T10:48:55.518Z,100429.37
2019-01-23T10:51:24.685Z,100425.55
2019-01-23T10:53:53.748Z,100425.16
2019-01-23T10:56:22.701Z,100436.71
2019-01-23T10:58:51.563Z,100433.06
2019-01-23T11:01:20.791Z,100433.02
2019-01-23T11:03:49.952Z,100435.91
2019-01-23T11:06:19.063Z,100437.68
2019-01-23T11:08:47.900Z,100433.84
2019-01-23T11:11:16.684Z,100428.66
2019-01-23T11:13:45.504Z,100425.64
2019-01-23T11:16:14.686Z,100424.28
2019-01-23T11:18:43.595Z,100422.80
2019-01-23T11:21:12.566Z,100431.73
2019-01-23T11:23:41.420Z,100419.55
2019-01-23T11:26:10.363Z,100421.68
2019-01-23T11:28:39.452Z,100415.82
2019-01-23T11:31:08.268Z,100415.31
2019-01-23T11:33:37.117Z,100411.42
2019-01-23T11:36:06.066Z,100413.48
2019-01-23T11:38:34.879Z,100412.93
2019-01-23T11:41:03.815Z,100411.92
2019-01-23T11:43:32.948Z,100410.30
2019-01-23T11:46:01.993Z,100412.12
2019-01-23T11:48:30.816Z,100407.58
2019-01-23T11:50:59.629Z,100411.07
2019-01-23T11:53:28.783Z,100421.36
2019-01-23T11:55:57.687Z,100419.47
2019-01-23T11:58:26.543Z,100425.11
2019-01-23T12:00:55.776Z,100424.36
2019-01-23T12:03:24.861Z,100424.25
2019-01-23T12:05:53.760Z,100427.63
2019-01-23T12:08:22.885Z,100425.38
2019-01-23T12:10:51.799Z,100428.05
2019-01-23T12:13:20.779Z,100425.59
2019-01-23T12:15:49.577Z,100431.06
2019-01-23T12:18:18.686Z,100425.44
2019-01-23T12:20:47.523Z,100428.47
2019-01-23T12:23:16.374Z,100435.36
2019-01-23T12:25:45.282Z,100438.03
2019-01-23T12:28:14.134Z,100437.05
2019-01-23T12:30:43.797Z,100433.98
2019-01-23T12:33:12.702Z,100428.22
2019-01-23T12:35:41.833Z,100431.27
2019-01-23T12:38:10.727Z,100437.37
2019-01-23T12:40:39.726Z,100438.03
2019-01-23T12:43:08.696Z,100433.41
2019-01-23T12:45:37.675Z,100436.87
2019-01-23T12:48:06.678Z,100434.98
2019-01-23T12:50:35.652Z,100424.89
2019-01-23T12:53:04.552Z,100437.67
2019-01-23T12:55:33.618Z,100432.83
2019-01-23T12:58:02.684Z,100438.83
2019-01-23T13:00:31.908Z,100432.12
2019-01-23T13:03:01.113Z,100437.13
2019-01-23T13:05:30.464Z,100436.69
2019-01-23T13:07:59.611Z,100434.77
2019-01-23T13:10:29.195Z,100437.73
2019-01-23T13:12:58.222Z,100434.86
2019-01-23T13:15:27.764Z,100428.41
2019-01-23T13:17:57.039Z,100427.78
2019-01-23T13:20:26.482Z,100427.69
2019-01-23T13:22:55.584Z,100428.52
2019-01-23T13:25:26.155Z,100428.57
2019-01-23T13:27:55.582Z,100429.52
2019-01-23T13:30:25.706Z,100430.05
2019-01-23T13:32:55.007Z,100427.31
2019-01-23T13:35:26.618Z,100416.70
2019-01-23T13:37:55.911Z,100425.67
2019-01-23T13:40:27.448Z,100422.96
2019-01-23T13:42:56.432Z,100429.78
2019-01-23T13:45:25.347Z,100421.55
2019-01-23T13:47:54.216Z,100431.98
2019-01-23T13:50:23.138Z,100430.72
2019-01-23T13:52:52.004Z,100435.95
2019-01-23T13:55:21.319Z,100438.36
2019-01-23T13:57:50.453Z,100439.01
2019-01-23T14:00:24.906Z,100450.09
2019-01-23T14:02:54.589Z,100448.73
2019-01-23T14:05:23.476Z,100451.86
2019-01-23T14:07:52.358Z,100455.61
2019-01-23T14:10:21.570Z,100448.93
2019-01-23T14:12:50.864Z,100449.53
2019-01-23T14:15:22.742Z,100448.70
2019-01-23T14:17:51.979Z,100454.17
2019-01-23T14:20:20.947Z,100455.44
2019-01-23T14:22:49.820Z,100455.46
2019-01-23T14:25:19.038Z,100455.73
2019-01-23T14:27:48.408Z,100464.25
2019-01-23T14:30:23.384Z,100460.52
2019-01-23T14:32:52.253Z,100465.14
2019-01-23T14:35:21.254Z,100466.02
2019-01-23T14:37:50.279Z,100461.58
2019-01-23T14:40:19.468Z,100463.22
2019-01-23T14:42:48.501Z,100456.61
2019-01-23T14:45:18.443Z,100455.34
2019-01-23T14:47:47.681Z,100460.84
2019-01-23T14:50:16.962Z,100458.20
2019-01-23T14:52:47.511Z,100460.94
2019-01-23T14:55:16.952Z,100462.73
2019-01-23T14:57:45.998Z,100463.58
2019-01-23T15:00:19.956Z,100461.70
2019-01-23T15:02:48.835Z,100463.84
2019-01-23T15:05:17.814Z,100468.34
2019-01-23T15:07:46.751Z,100469.63
2019-01-23T15:10:21.064Z,100479.51
2019-01-23T15:12:49.950Z,100485.31
2019-01-23T15:15:19.075Z,100483.06
2019-01-23T15:17:48.130Z,100484.83
2019-01-23T15:20:19.966Z,100485.40
2019-01-23T15:22:48.724Z,100492.19
2019-01-23T15:25:17.705Z,100487.55
2019-01-23T15:27:46.508Z,100499.13
2019-01-23T15:30:16.626Z,100503.39
2019-01-23T15:32:45.494Z,100499.67
2019-01-23T15:35:14.623Z,100500.34
2019-01-23T15:37:43.462Z,100503.34
2019-01-23T15:40:15.265Z,100506.34
2019-01-23T15:42:44.523Z,100503.84
2019-01-23T15:45:13.500Z,100517.14
2019-01-23T15:47:42.391Z,100512.45
2019-01-23T15:50:14.024Z,100527.16
2019-01-23T15:52:43.081Z,100530.12
2019-01-23T15:55:13.368Z,100531.86
2019-01-23T15:57:42.357Z,100538.41
2019-01-23T16:00:18.639Z,100538.83
2019-01-23T16:02:48.670Z,100538.46
2019-01-23T16:05:17.667Z,100544.09
2019-01-23T16:07:46.913Z,100543.64
2019-01-23T16:10:18.002Z,100552.80
2019-01-23T16:12:47.081Z,100547.16
2019-01-23T16:15:19.643Z,100556.59
2019-01-23T16:17:48.541Z,100563.07
2019-01-23T16:20:17.467Z,100570.11
2019-01-23T16:26:32.778Z,100572.00
2019-01-23T16:29:01.602Z,100571.08
2019-01-23T16:31:30.383Z,100577.68
2019-01-23T16:33:59.557Z,100581.94
2019-01-23T16:36:28.472Z,100580.17
2019-01-23T16:38:57.320Z,100579.47
2019-01-23T16:41:26.560Z,100575.08
2019-01-23T16:43:55.455Z,100577.68
2019-01-23T16:46:24.429Z,100584.58
2019-01-23T16:48:53.479Z,100584.97
2019-01-23T16:51:22.294Z,100588.63
2019-01-23T16:53:51.123Z,100589.87
2019-01-23T16:56:20.151Z,100593.81
2019-01-23T16:58:49.381Z,100594.30
2019-01-23T17:01:18.572Z,100599.42
2019-01-23T17:03:47.780Z,100602.41
2019-01-23T17:06:16.764Z,100600.37
2019-01-23T17:08:45.557Z,100605.07
2019-01-23T17:11:14.363Z,100603.86
2019-01-23T17:13:43.207Z,100609.50
2019-01-23T17:16:12.966Z,100607.30
2019-01-23T17:18:41.875Z,100612.50
2019-01-23T17:21:13.148Z,100621.14
2019-01-23T17:23:42.105Z,100625.53
2019-01-23T17:26:11.000Z,100625.50
2019-01-23T17:28:40.466Z,100622.44
2019-01-23T17:31:09.392Z,100621.59
2019-01-23T17:33:38.363Z,100623.39
2019-01-23T17:36:07.401Z,100630.44
2019-01-23T17:38:36.177Z,100635.51
2019-01-23T17:41:05.226Z,100640.60
2019-01-23T17:43:35.140Z,100641.97
2019-01-23T17:46:03.991Z,100635.50
2019-01-23T17:48:32.924Z,100645.78
2019-01-23T17:51:01.754Z,100649.18
2019-01-23T17:53:30.560Z,100649.30
2019-01-23T17:55:59.379Z,100649.70
2019-01-23T17:58:28.378Z,100647.59
2019-01-23T18:00:58.805Z,100647.98
2019-01-23T18:03:28.229Z,100656.63
2019-01-23T18:05:57.434Z,100657.45
2019-01-23T18:08:26.357Z,100652.30
2019-01-23T18:10:55.412Z,100647.56
2019-01-23T18:13:30.061Z,100659.24
2019-01-23T18:16:17.525Z,100655.80
2019-01-23T18:18:46.734Z,100666.13
2019-01-23T18:21:15.999Z,100664.80
2019-01-23T18:23:45.107Z,100664.43
2019-01-23T18:26:14.034Z,100665.69
2019-01-23T18:28:42.932Z,100672.19
2019-01-23T18:31:38.665Z,100672.59
2019-01-23T18:34:40.051Z,100670.85
2019-01-23T18:37:22.724Z,100672.19
2019-01-23T18:40:20.634Z,100673.09
2019-01-23T18:43:34.442Z,100681.67
2019-01-23T18:46:37.648Z,100689.81
2019-01-23T18:49:48.001Z,100685.97
2019-01-23T18:52:17.213Z,100701.40
2019-01-23T18:54:46.192Z,100696.67
2019-01-23T18:57:18.348Z,100695.41
2019-01-23T18:59:47.310Z,100693.69
2019-01-23T19:02:16.178Z,100689.38
2019-01-23T19:04:45.400Z,100702.27
2019-01-23T19:07:14.267Z,100700.55
2019-01-23T19:09:43.310Z,100709.15
2019-01-23T19:12:12.283Z,100701.04
2019-01-23T19:14:41.159Z,100708.33
2019-01-23T19:17:10.324Z,100701.42
2019-01-23T19:19:39.245Z,100710.05
2019-01-23T19:22:08.422Z,100707.06
2019-01-23T19:24:37.718Z,100708.35
2019-01-23T19:27:06.709Z,100705.72
2019-01-23T19:29:35.740Z,100708.77
2019-01-23T19:32:04.827Z,100707.05
2019-01-23T19:34:33.786Z,100709.20
2019-01-23T19:37:02.657Z,100712.20
2019-01-23T19:39:31.527Z,100715.20
2019-01-23T19:42:00.390Z,100719.48
2019-01-23T19:44:29.180Z,100723.79
2019-01-23T19:46:58.121Z,100721.23
2019-01-23T19:49:27.492Z,100721.64
2019-01-23T19:51:56.570Z,100725.92
2019-01-23T19:54:27.222Z,100728.08
2019-01-23T19:56:56.601Z,100734.09
2019-01-23T19:59:26.505Z,100727.20
2019-01-23T20:01:55.472Z,100736.23
2019-01-23T20:04:24.341Z,100731.95
2019-01-23T20:06:53.664Z,100730.67
2019-01-23T20:09:22.540Z,100733.23
2019-01-23T20:11:51.434Z,100738.36
2019-01-23T20:14:20.389Z,100740.94
2019-01-23T20:16:50.093Z,100744.38
2019-01-23T20:19:18.869Z,100741.80
2019-01-23T20:21:47.777Z,100739.66
2019-01-23T20:24:16.739Z,100747.80
2019-01-23T20:26:45.883Z,100755.51
2019-01-23T20:29:14.752Z,100762.36
2019-01-23T20:31:43.579Z,100768.80
2019-01-23T20:34:12.885Z,100764.50
2019-01-23T20:37:03.033Z,100768.37
2019-01-23T20:39:31.855Z,100772.66
2019-01-23T20:42:00.670Z,100778.98
2019-01-23T20:44:29.741Z,100784.56
2019-01-23T20:46:59.121Z,100788.91
2019-01-23T20:49:28.243Z,100785.45
2019-01-23T20:51:57.109Z,100797.45
2019-01-23T20:54:26.008Z,100796.59
2019-01-23T20:56:55.066Z,100802.60
2019-01-23T20:59:24.294Z,100799.56
2019-01-23T21:01:53.398Z,100804.28
2019-01-23T21:04:22.230Z,100810.74
2019-01-23T21:06:51.141Z,100802.17
2019-01-23T21:09:19.940Z,100810.74
2019-01-23T21:11:49.063Z,100805.11
2019-01-23T21:14:17.943Z,100811.11
2019-01-23T21:16:46.737Z,100813.64
2019-01-23T21:19:15.511Z,100820.11
2019-01-23T21:21:44.622Z,100817.11
2019-01-23T21:24:13.416Z,100824.81
2019-01-23T21:26:42.327Z,100820.50
2019-01-23T21:29:11.219Z,100827.39
2019-01-23T21:31:40.263Z,100835.88
2019-01-23T21:34:09.599Z,100838.45
2019-01-23T21:36:38.490Z,100836.78
2019-01-23T21:39:37.148Z,100845.31
2019-01-23T21:42:06.279Z,100850.49
2019-01-23T21:44:35.105Z,100854.39
2019-01-23T21:47:04.373Z,100856.16
2019-01-23T21:49:33.228Z,100854.87
2019-01-23T21:52:02.143Z,100856.19
2019-01-23T21:54:38.789Z,100860.55
2019-01-23T21:57:07.640Z,100861.01
2019-01-23T21:59:36.468Z,100866.19
2019-01-23T22:02:05.925Z,100868.75
2019-01-23T22:04:35.028Z,100861.92
2019-01-23T22:07:03.912Z,100864.52
2019-01-23T22:09:32.949Z,100872.19
2019-01-23T22:12:01.918Z,100869.22
2019-01-23T22:14:31.128Z,100873.88
2019-01-23T22:17:00.287Z,100865.66
2019-01-23T22:19:29.399Z,100859.72
2019-01-23T22:21:58.248Z,100870.02
2019-01-23T22:24:27.389Z,100876.02
2019-01-23T22:26:56.306Z,100884.59
2019-01-23T22:29:25.269Z,100876.41
2019-01-23T22:31:54.674Z,100887.53
2019-01-23T22:34:23.657Z,100893.14
2019-01-23T22:36:57.119Z,100890.95
2019-01-23T22:39:28.618Z,100900.04
2019-01-23T22:42:12.406Z,100893.61
2019-01-23T23:01:30.848Z,100921.02
2019-01-23T23:04:03.373Z,100926.59
2019-01-23T23:06:31.551Z,100930.53
2019-01-23T23:09:00.359Z,100931.39
2019-01-23T23:11:29.181Z,100942.97
2019-01-23T23:13:57.978Z,100943.35
2019-01-23T23:16:26.796Z,100947.22
2019-01-23T23:18:55.600Z,100949.02
2019-01-23T23:21:24.458Z,100944.22
2019-01-23T23:23:53.224Z,100946.79
2019-01-23T23:26:22.035Z,100957.51
2019-01-23T23:28:50.840Z,100962.31
2019-01-23T23:31:19.820Z,100962.73
2019-01-23T23:33:48.624Z,100956.66
2019-01-23T23:36:17.441Z,100966.56
2019-01-23T23:38:46.228Z,100972.56
2019-01-23T23:41:15.078Z,100974.67
2019-01-23T23:43:44.235Z,100969.56
2019-01-23T23:46:13.648Z,100970.81
2019-01-23T23:48:42.448Z,100973.03
2019-01-23T23:51:11.391Z,100978.53
2019-01-23T23:53:40.171Z,100969.13
2019-01-23T23:56:08.978Z,100980.38
2019-01-23T23:58:37.781Z,100979.47
